Isleta, NM (87022)

10:52 PM MDT on September 28, 2016 (GMT -0600)
Mountain View | | Change Station

Elev 4947 ft 35.00 °N, 106.66 °W | Updated 2 minutes ago

Scattered Clouds
Scattered Clouds
72.3 °F
Feels Like 76 °F
N
0.6
Wind Variable Wind from NNW
Gusts 3.1 mph

Today
High -- | Low -- °F
--% Chance of Precip.
Yesterday
High -- | Low -- °F
Precip. -- in
Pressure 30.10 in
Visibility 10.0 miles
Clouds Scattered Clouds 16000 ft
Heat Index 76 °F
Dew Point 40 °F
Humidity 30%
Rainfall 0.00 in
Snow Depth Not available.
6:59 AM 6:54 PM
Waning Crescent, 3% visible
METAR KABQ 290352Z 13011KT 10SM SCT160 23/M01 A3031 RMK AO2 SLP192 T02281011
Pressure 30.10 in
Visibility 10.0 miles
Clouds Scattered Clouds 16000 ft
Heat Index 76 °F
Dew Point 40 °F
Humidity 30%
Rainfall 0.00 in
Snow Depth Not available.
6:59 AM 6:54 PM
Waning Crescent, 3% visible
METAR KABQ 290352Z 13011KT 10SM SCT160 23/M01 A3031 RMK AO2 SLP192 T02281011

10-Day Weather Forecast

Almanac

Astronomy

Sep. 28, 2016 Rise Set
Actual Time
Civil Twilight
Nautical Twilight
Astronomical Twilight
Moon
Length of Visible Light
Length of Day
Tomorrow will be .
, % of the Moon is Illuminated

Today's Extremes

State Highs State Lows

Community

WunderPhotos

Upload Photos

1,942,435 photos uploaded!

WunderBlog® & News

Nearby

Air Quality

  Air Quality AQ Index Pollutant
Not available.

Snow Depth

Station Depth Elevation

Earthquake Activity

City Distance Mag. Time & Date
Minimum magnitude displayed is 2.5.

Coastal Water Temperatures

Place Temperature

Stations

Nearby Weather Stations

Station Location Temp. Windchill Dew Point Humidity Wind Precip. Elev Updated Type
                   

Watches & Warnings

There are currently no watches in effect.